sensor_id;sensor_type;location;lat;lon;timestamp;pressure;altitude;pressure_sealevel;temperature;humidity
29879;BME280;16752;53.364;-1.488;2024-02-15T00:00:38;99695.97;;;19.22;53.36
29879;BME280;16752;53.364;-1.488;2024-02-15T00:03:22;99687.31;;;18.89;54.30
29879;BME280;16752;53.364;-1.488;2024-02-15T00:06:06;99689.47;;;19.25;53.30
29879;BME280;16752;53.364;-1.488;2024-02-15T00:08:50;99689.47;;;19.64;52.39
29879;BME280;16752;53.364;-1.488;2024-02-15T00:11:35;99694.81;;;19.87;51.56
29879;BME280;16752;53.364;-1.488;2024-02-15T00:14:19;99685.94;;;19.72;51.95
29879;BME280;16752;53.364;-1.488;2024-02-15T00:17:03;99693.91;;;19.02;53.75
29879;BME280;16752;53.364;-1.488;2024-02-15T00:19:48;99690.66;;;19.62;52.22
29879;BME280;16752;53.364;-1.488;2024-02-15T00:22:32;99685.97;;;20.18;50.63
29879;BME280;16752;53.364;-1.488;2024-02-15T00:25:17;99688.59;;;19.72;51.51
29879;BME280;16752;53.364;-1.488;2024-02-15T00:28:01;99673.50;;;20.18;50.53
29879;BME280;16752;53.364;-1.488;2024-02-15T00:30:45;99676.44;;;19.77;51.60
29879;BME280;16752;53.364;-1.488;2024-02-15T00:33:29;99673.53;;;20.10;50.81
29879;BME280;16752;53.364;-1.488;2024-02-15T00:36:14;99668.66;;;19.76;51.57
29879;BME280;16752;53.364;-1.488;2024-02-15T00:38:58;99668.41;;;20.08;50.84
29879;BME280;16752;53.364;-1.488;2024-02-15T00:41:42;99666.75;;;19.31;52.70
29879;BME280;16752;53.364;-1.488;2024-02-15T00:44:27;99660.94;;;18.88;53.83
29879;BME280;16752;53.364;-1.488;2024-02-15T00:47:10;99653.81;;;19.59;52.14
29879;BME280;16752;53.364;-1.488;2024-02-15T00:49:57;99649.22;;;19.98;50.80
29879;BME280;16752;53.364;-1.488;2024-02-15T00:52:42;99648.38;;;19.98;51.13
29879;BME280;16752;53.364;-1.488;2024-02-15T00:55:26;99642.09;;;19.76;51.93
29879;BME280;16752;53.364;-1.488;2024-02-15T00:58:09;99633.94;;;19.46;52.37
29879;BME280;16752;53.364;-1.488;2024-02-15T01:00:53;99620.94;;;19.60;52.26
29879;BME280;16752;53.364;-1.488;2024-02-15T01:03:37;99613.69;;;19.45;52.38
29879;BME280;16752;53.364;-1.488;2024-02-15T01:06:22;99629.47;;;19.70;52.07
29879;BME280;16752;53.364;-1.488;2024-02-15T01:09:06;99631.16;;;20.08;50.75
29879;BME280;16752;53.364;-1.488;2024-02-15T01:11:52;99647.56;;;19.97;51.13
29879;BME280;16752;53.364;-1.488;2024-02-15T01:14:36;99654.13;;;20.47;49.77
29879;BME280;16752;53.364;-1.488;2024-02-15T01:17:20;99664.38;;;20.50;49.75
29879;BME280;16752;53.364;-1.488;2024-02-15T01:20:04;99664.59;;;20.63;49.42
29879;BME280;16752;53.364;-1.488;2024-02-15T01:22:50;99653.00;;;20.56;49.37
29879;BME280;16752;53.364;-1.488;2024-02-15T01:25:35;99667.88;;;19.90;50.87
29879;BME280;16752;53.364;-1.488;2024-02-15T01:28:19;99654.03;;;20.18;50.71
29879;BME280;16752;53.364;-1.488;2024-02-15T01:31:03;99648.91;;;20.31;50.13
29879;BME280;16752;53.364;-1.488;2024-02-15T01:33:47;99648.91;;;20.31;50.14
29879;BME280;16752;53.364;-1.488;2024-02-15T01:36:31;99648.81;;;20.24;50.23
29879;BME280;16752;53.364;-1.488;2024-02-15T01:39:16;99655.53;;;20.35;50.07
29879;BME280;16752;53.364;-1.488;2024-02-15T01:41:59;99652.81;;;20.58;49.48
29879;BME280;16752;53.364;-1.488;2024-02-15T01:44:43;99654.56;;;20.80;48.82
29879;BME280;16752;53.364;-1.488;2024-02-15T01:47:27;99653.69;;;20.21;50.59
29879;BME280;16752;53.364;-1.488;2024-02-15T01:50:11;99653.78;;;20.27;50.67
29879;BME280;16752;53.364;-1.488;2024-02-15T01:52:55;99654.19;;;20.01;51.29
29879;BME280;16752;53.364;-1.488;2024-02-15T01:55:40;99652.31;;;19.25;53.64
29879;BME280;16752;53.364;-1.488;2024-02-15T01:58:27;99660.06;;;19.66;52.65
29879;BME280;16752;53.364;-1.488;2024-02-15T02:01:15;99658.88;;;20.14;51.29
29879;BME280;16752;53.364;-1.488;2024-02-15T02:04:00;99651.69;;;19.54;52.57
29879;BME280;16752;53.364;-1.488;2024-02-15T02:06:44;99656.06;;;20.30;50.95
29879;BME280;16752;53.364;-1.488;2024-02-15T02:09:28;99660.88;;;20.12;51.33
29879;BME280;16752;53.364;-1.488;2024-02-15T02:12:12;99661.75;;;19.28;53.55
29879;BME280;16752;53.364;-1.488;2024-02-15T02:14:56;99674.72;;;20.07;51.45
29879;BME280;16752;53.364;-1.488;2024-02-15T02:17:40;99667.38;;;20.09;51.27
29879;BME280;16752;53.364;-1.488;2024-02-15T02:20:27;99667.25;;;20.26;50.84
29879;BME280;16752;53.364;-1.488;2024-02-15T02:23:14;99669.81;;;20.71;49.85
29879;BME280;16752;53.364;-1.488;2024-02-15T02:25:58;99671.28;;;19.45;52.87
29879;BME280;16752;53.364;-1.488;2024-02-15T02:28:43;99669.53;;;20.52;50.88
29879;BME280;16752;53.364;-1.488;2024-02-15T02:31:27;99665.03;;;20.52;50.71
29879;BME280;16752;53.364;-1.488;2024-02-15T02:34:11;99665.59;;;20.25;51.12
29879;BME280;16752;53.364;-1.488;2024-02-15T02:36:57;99643.53;;;20.01;52.03
29879;BME280;16752;53.364;-1.488;2024-02-15T02:39:42;99631.94;;;20.32;50.99
29879;BME280;16752;53.364;-1.488;2024-02-15T02:42:26;99622.97;;;20.33;51.16
29879;BME280;16752;53.364;-1.488;2024-02-15T02:45:10;99612.91;;;20.58;50.27
29879;BME280;16752;53.364;-1.488;2024-02-15T02:47:54;99611.56;;;20.09;51.69
29879;BME280;16752;53.364;-1.488;2024-02-15T02:50:38;99608.66;;;20.19;51.48
29879;BME280;16752;53.364;-1.488;2024-02-15T02:53:22;99609.28;;;20.36;50.96
29879;BME280;16752;53.364;-1.488;2024-02-15T02:56:06;99602.25;;;19.68;53.15
29879;BME280;16752;53.364;-1.488;2024-02-15T02:58:53;99609.66;;;19.80;52.92
29879;BME280;16752;53.364;-1.488;2024-02-15T03:01:37;99594.06;;;20.30;51.38
29879;BME280;16752;53.364;-1.488;2024-02-15T03:04:23;99599.53;;;20.13;51.79
29879;BME280;16752;53.364;-1.488;2024-02-15T03:07:07;99604.25;;;20.26;51.48
29879;BME280;16752;53.364;-1.488;2024-02-15T03:09:51;99587.75;;;19.24;53.99
29879;BME280;16752;53.364;-1.488;2024-02-15T03:12:38;99585.66;;;19.66;52.76
29879;BME280;16752;53.364;-1.488;2024-02-15T03:15:22;99580.47;;;19.72;52.94
29879;BME280;16752;53.364;-1.488;2024-02-15T03:18:06;99586.72;;;20.32;51.14
29879;BME280;16752;53.364;-1.488;2024-02-15T03:20:50;99576.69;;;19.67;53.00
29879;BME280;16752;53.364;-1.488;2024-02-15T03:23:34;99582.03;;;20.34;50.96
29879;BME280;16752;53.364;-1.488;2024-02-15T03:26:21;99582.28;;;20.62;50.57
29879;BME280;16752;53.364;-1.488;2024-02-15T03:29:05;99569.63;;;20.64;50.13
29879;BME280;16752;53.364;-1.488;2024-02-15T03:31:51;99577.97;;;20.46;50.53
29879;BME280;16752;53.364;-1.488;2024-02-15T03:34:37;99571.38;;;20.42;50.74
29879;BME280;16752;53.364;-1.488;2024-02-15T03:37:23;99580.41;;;20.33;50.98
29879;BME280;16752;53.364;-1.488;2024-02-15T03:40:08;99577.59;;;20.49;50.79
29879;BME280;16752;53.364;-1.488;2024-02-15T03:42:52;99571.00;;;20.45;50.95
29879;BME280;16752;53.364;-1.488;2024-02-15T03:45:36;99579.69;;;20.68;49.95
29879;BME280;16752;53.364;-1.488;2024-02-15T03:48:20;99570.88;;;20.53;50.41
29879;BME280;16752;53.364;-1.488;2024-02-15T03:51:04;99578.50;;;20.56;50.39
29879;BME280;16752;53.364;-1.488;2024-02-15T03:53:50;99578.69;;;20.69;50.09
29879;BME280;16752;53.364;-1.488;2024-02-15T03:56:35;99576.47;;;20.29;50.79
29879;BME280;16752;53.364;-1.488;2024-02-15T03:59:19;99567.38;;;20.23;50.88
29879;BME280;16752;53.364;-1.488;2024-02-15T04:02:10;99570.31;;;20.28;51.38
29879;BME280;16752;53.364;-1.488;2024-02-15T04:04:58;99564.81;;;20.59;50.41
29879;BME280;16752;53.364;-1.488;2024-02-15T04:07:42;99570.63;;;20.48;50.44
29879;BME280;16752;53.364;-1.488;2024-02-15T04:10:27;99569.00;;;19.72;52.52
29879;BME280;16752;53.364;-1.488;2024-02-15T04:13:11;99567.22;;;20.39;50.84
29879;BME280;16752;53.364;-1.488;2024-02-15T04:15:55;99556.69;;;20.61;50.37
29879;BME280;16752;53.364;-1.488;2024-02-15T04:18:39;99564.81;;;20.59;50.50
29879;BME280;16752;53.364;-1.488;2024-02-15T04:21:23;99555.41;;;20.42;51.21
29879;BME280;16752;53.364;-1.488;2024-02-15T04:24:07;99551.59;;;20.22;51.51
29879;BME280;16752;53.364;-1.488;2024-02-15T04:26:50;99549.22;;;20.56;50.49
29879;BME280;16752;53.364;-1.488;2024-02-15T04:29:35;99556.34;;;20.11;51.92
29879;BME280;16752;53.364;-1.488;2024-02-15T04:32:20;99549.22;;;20.27;51.58
29879;BME280;16752;53.364;-1.488;2024-02-15T04:35:04;99548.25;;;20.42;51.04
29879;BME280;16752;53.364;-1.488;2024-02-15T04:37:49;99531.63;;;19.73;53.35
29879;BME280;16752;53.364;-1.488;2024-02-15T04:40:35;99536.53;;;20.14;51.83
29879;BME280;16752;53.364;-1.488;2024-02-15T04:43:21;99542.69;;;20.14;51.81
29879;BME280;16752;53.364;-1.488;2024-02-15T04:46:06;99542.50;;;20.01;52.44
29879;BME280;16752;53.364;-1.488;2024-02-15T04:48:51;99543.91;;;20.27;51.91
29879;BME280;16752;53.364;-1.488;2024-02-15T04:51:35;99547.69;;;20.47;51.15
29879;BME280;16752;53.364;-1.488;2024-02-15T04:54:20;99542.88;;;19.98;52.55
29879;BME280;16752;53.364;-1.488;2024-02-15T04:57:04;99551.41;;;20.38;51.45
29879;BME280;16752;53.364;-1.488;2024-02-15T04:59:47;99554.06;;;20.38;51.15
29879;BME280;16752;53.364;-1.488;2024-02-15T05:02:33;99545.66;;;20.64;50.84
29879;BME280;16752;53.364;-1.488;2024-02-15T05:05:20;99536.38;;;20.74;50.25
29879;BME280;16752;53.364;-1.488;2024-02-15T05:08:05;99532.47;;;20.41;51.05
29879;BME280;16752;53.364;-1.488;2024-02-15T05:10:49;99522.91;;;20.61;50.81
29879;BME280;16752;53.364;-1.488;2024-02-15T05:13:34;99515.53;;;20.34;51.17
29879;BME280;16752;53.364;-1.488;2024-02-15T05:16:18;99520.94;;;19.81;53.08
29879;BME280;16752;53.364;-1.488;2024-02-15T05:19:03;99520.03;;;20.33;51.51
29879;BME280;16752;53.364;-1.488;2024-02-15T05:21:47;99511.88;;;20.05;52.31
29879;BME280;16752;53.364;-1.488;2024-02-15T05:24:31;99498.44;;;19.09;54.52
29879;BME280;16752;53.364;-1.488;2024-02-15T05:27:15;99495.22;;;19.36;54.05
29879;BME280;16752;53.364;-1.488;2024-02-15T05:29:59;99497.03;;;20.26;51.72
29879;BME280;16752;53.364;-1.488;2024-02-15T05:32:43;99487.03;;;19.00;55.03
29879;BME280;16752;53.364;-1.488;2024-02-15T05:35:29;99489.53;;;20.00;52.65
29879;BME280;16752;53.364;-1.488;2024-02-15T05:38:13;99481.66;;;19.31;53.88
29879;BME280;16752;53.364;-1.488;2024-02-15T05:40:59;99503.22;;;20.41;51.44
29879;BME280;16752;53.364;-1.488;2024-02-15T05:43:42;99510.53;;;20.39;50.91
29879;BME280;16752;53.364;-1.488;2024-02-15T05:46:26;99503.09;;;20.49;51.01
29879;BME280;16752;53.364;-1.488;2024-02-15T05:49:11;99506.31;;;20.44;50.83
29879;BME280;16752;53.364;-1.488;2024-02-15T05:51:59;99503.91;;;20.50;51.21
29879;BME280;16752;53.364;-1.488;2024-02-15T05:54:43;99500.34;;;20.28;51.21
29879;BME280;16752;53.364;-1.488;2024-02-15T05:57:27;99493.41;;;19.51;53.38
29879;BME280;16752;53.364;-1.488;2024-02-15T06:00:11;99496.00;;;19.82;52.69
29879;BME280;16752;53.364;-1.488;2024-02-15T06:02:55;99495.28;;;20.33;51.63
29879;BME280;16752;53.364;-1.488;2024-02-15T06:05:39;99493.25;;;20.35;51.39
29879;BME280;16752;53.364;-1.488;2024-02-15T06:08:23;99492.34;;;19.23;54.19
29879;BME280;16752;53.364;-1.488;2024-02-15T06:11:07;99482.31;;;19.71;53.17
29879;BME280;16752;53.364;-1.488;2024-02-15T06:13:51;99485.97;;;19.70;53.17
29879;BME280;16752;53.364;-1.488;2024-02-15T06:16:41;99477.34;;;19.30;54.31
29879;BME280;16752;53.364;-1.488;2024-02-15T06:19:25;99478.03;;;18.39;57.14
29879;BME280;16752;53.364;-1.488;2024-02-15T06:22:09;99478.66;;;19.57;54.21
29879;BME280;16752;53.364;-1.488;2024-02-15T06:24:55;99490.47;;;19.46;54.56
29879;BME280;16752;53.364;-1.488;2024-02-15T06:27:39;99480.72;;;19.99;52.80
29879;BME280;16752;53.364;-1.488;2024-02-15T06:30:27;99480.50;;;20.15;52.28
29879;BME280;16752;53.364;-1.488;2024-02-15T06:33:30;99473.28;;;20.09;52.50
29879;BME280;16752;53.364;-1.488;2024-02-15T06:36:32;99475.44;;;19.62;53.77
29879;BME280;16752;53.364;-1.488;2024-02-15T06:39:35;99468.97;;;20.08;52.40
29879;BME280;16752;53.364;-1.488;2024-02-15T06:42:24;99448.69;;;19.63;53.99
29879;BME280;16752;53.364;-1.488;2024-02-15T06:45:10;99445.31;;;19.69;53.72
29879;BME280;16752;53.364;-1.488;2024-02-15T06:47:56;99460.44;;;19.83;53.37
29879;BME280;16752;53.364;-1.488;2024-02-15T06:50:41;99453.47;;;20.12;52.72
29879;BME280;16752;53.364;-1.488;2024-02-15T06:53:25;99440.69;;;20.37;51.87
29879;BME280;16752;53.364;-1.488;2024-02-15T06:56:09;99448.53;;;19.94;53.23
29879;BME280;16752;53.364;-1.488;2024-02-15T06:58:53;99442.28;;;19.87;53.23
29879;BME280;16752;53.364;-1.488;2024-02-15T07:01:38;99447.59;;;20.46;51.73
29879;BME280;16752;53.364;-1.488;2024-02-15T07:04:22;99440.66;;;19.86;53.06
29879;BME280;16752;53.364;-1.488;2024-02-15T07:07:09;99442.03;;;19.97;53.02
29879;BME280;16752;53.364;-1.488;2024-02-15T07:09:53;99451.28;;;20.45;51.68
29879;BME280;16752;53.364;-1.488;2024-02-15T07:12:37;99452.34;;;20.87;50.52
29879;BME280;16752;53.364;-1.488;2024-02-15T07:15:21;99452.00;;;20.09;52.44
29879;BME280;16752;53.364;-1.488;2024-02-15T07:18:05;99452.09;;;20.31;52.07
29879;BME280;16752;53.364;-1.488;2024-02-15T07:20:50;99447.59;;;20.31;51.70
29879;BME280;16752;53.364;-1.488;2024-02-15T07:23:34;99445.03;;;20.74;50.72
29879;BME280;16752;53.364;-1.488;2024-02-15T07:26:18;99456.53;;;20.96;49.90
29879;BME280;16752;53.364;-1.488;2024-02-15T07:29:03;99457.59;;;21.01;49.81
29879;BME280;16752;53.364;-1.488;2024-02-15T07:31:51;99451.16;;;21.11;49.61
29879;BME280;16752;53.364;-1.488;2024-02-15T07:34:35;99461.50;;;20.63;50.96
29879;BME280;16752;53.364;-1.488;2024-02-15T07:37:20;99459.50;;;20.86;50.37
29879;BME280;16752;53.364;-1.488;2024-02-15T07:40:08;99456.56;;;20.81;50.74
29879;BME280;16752;53.364;-1.488;2024-02-15T07:42:52;99458.06;;;21.05;50.09
29879;BME280;16752;53.364;-1.488;2024-02-15T07:45:36;99457.69;;;21.08;49.82
29879;BME280;16752;53.364;-1.488;2024-02-15T07:48:20;99452.22;;;21.16;49.52
29879;BME280;16752;53.364;-1.488;2024-02-15T07:51:04;99463.75;;;21.23;49.45
29879;BME280;16752;53.364;-1.488;2024-02-15T07:53:49;99449.69;;;21.08;49.59
29879;BME280;16752;53.364;-1.488;2024-02-15T07:56:33;99452.47;;;21.00;50.26
29879;BME280;16752;53.364;-1.488;2024-02-15T07:59:19;99450.56;;;21.15;49.81
29879;BME280;16752;53.364;-1.488;2024-02-15T08:02:03;99448.94;;;21.14;49.80
29879;BME280;16752;53.364;-1.488;2024-02-15T08:04:49;99452.22;;;21.16;49.73
29879;BME280;16752;53.364;-1.488;2024-02-15T08:07:32;99457.75;;;20.93;50.29
29879;BME280;16752;53.364;-1.488;2024-02-15T08:10:19;99450.91;;;21.05;50.23
29879;BME280;16752;53.364;-1.488;2024-02-15T08:13:03;99448.69;;;21.09;50.07
29879;BME280;16752;53.364;-1.488;2024-02-15T08:15:47;99442.25;;;21.03;50.32
29879;BME280;16752;53.364;-1.488;2024-02-15T08:18:35;99446.22;;;20.86;50.87
29879;BME280;16752;53.364;-1.488;2024-02-15T08:21:29;99449.53;;;19.93;53.38
29879;BME280;16752;53.364;-1.488;2024-02-15T08:24:16;99440.91;;;20.21;53.04
29879;BME280;16752;53.364;-1.488;2024-02-15T08:27:00;99444.63;;;20.92;51.23
29879;BME280;16752;53.364;-1.488;2024-02-15T08:29:44;99437.75;;;20.61;51.94
29879;BME280;16752;53.364;-1.488;2024-02-15T08:32:28;99449.00;;;20.42;52.36
29879;BME280;16752;53.364;-1.488;2024-02-15T08:35:12;99430.47;;;20.70;51.56
29879;BME280;16752;53.364;-1.488;2024-02-15T08:37:56;99437.84;;;20.38;53.21
29879;BME280;16752;53.364;-1.488;2024-02-15T08:40:40;99437.81;;;19.88;54.46
29879;BME280;16752;53.364;-1.488;2024-02-15T08:43:24;99433.47;;;20.31;53.17
29879;BME280;16752;53.364;-1.488;2024-02-15T08:46:08;99433.88;;;19.98;54.26
29879;BME280;16752;53.364;-1.488;2024-02-15T08:48:52;99428.34;;;19.70;54.76
29879;BME280;16752;53.364;-1.488;2024-02-15T08:51:36;99429.84;;;20.02;53.88
29879;BME280;16752;53.364;-1.488;2024-02-15T08:54:20;99426.81;;;20.20;53.84
29879;BME280;16752;53.364;-1.488;2024-02-15T08:57:05;99426.56;;;20.36;53.53
29879;BME280;16752;53.364;-1.488;2024-02-15T08:59:51;99423.56;;;20.75;52.05
29879;BME280;16752;53.364;-1.488;2024-02-15T09:02:35;99418.25;;;20.97;51.81
29879;BME280;16752;53.364;-1.488;2024-02-15T09:05:19;99420.50;;;21.21;50.81
29879;BME280;16752;53.364;-1.488;2024-02-15T09:08:06;99415.50;;;21.61;49.96
29879;BME280;16752;53.364;-1.488;2024-02-15T09:10:50;99412.25;;;21.38;50.47
29879;BME280;16752;53.364;-1.488;2024-02-15T09:13:36;99412.75;;;21.48;50.26
29879;BME280;16752;53.364;-1.488;2024-02-15T09:16:21;99402.59;;;21.64;49.94
29879;BME280;16752;53.364;-1.488;2024-02-15T09:19:05;99399.84;;;21.79;49.42
29879;BME280;16752;53.364;-1.488;2024-02-15T09:21:49;99396.63;;;21.56;50.09
29879;BME280;16752;53.364;-1.488;2024-02-15T09:24:33;99392.47;;;21.88;49.22
29879;BME280;16752;53.364;-1.488;2024-02-15T09:27:17;99391.22;;;21.77;49.51
29879;BME280;16752;53.364;-1.488;2024-02-15T09:30:01;99387.75;;;21.83;49.37
29879;BME280;16752;53.364;-1.488;2024-02-15T09:32:45;99397.00;;;21.53;50.67
29879;BME280;16752;53.364;-1.488;2024-02-15T09:35:29;99399.25;;;21.49;50.52
29879;BME280;16752;53.364;-1.488;2024-02-15T09:38:13;99394.94;;;21.89;49.58
29879;BME280;16752;53.364;-1.488;2024-02-15T09:41:00;99391.75;;;22.01;49.49
29879;BME280;16752;53.364;-1.488;2024-02-15T09:43:44;99391.03;;;22.20;48.84
29879;BME280;16752;53.364;-1.488;2024-02-15T09:46:28;99394.31;;;22.22;48.76
29879;BME280;16752;53.364;-1.488;2024-02-15T09:49:13;99390.03;;;21.52;50.67
29879;BME280;16752;53.364;-1.488;2024-02-15T09:51:58;99386.31;;;21.87;50.01
29879;BME280;16752;53.364;-1.488;2024-02-15T09:54:42;99386.31;;;21.81;50.12
29879;BME280;16752;53.364;-1.488;2024-02-15T09:57:29;99374.06;;;21.93;49.88
29879;BME280;16752;53.364;-1.488;2024-02-15T10:00:15;99376.47;;;22.29;48.83
29879;BME280;16752;53.364;-1.488;2024-02-15T10:03:00;99374.91;;;21.93;50.07
29879;BME280;16752;53.364;-1.488;2024-02-15T10:05:47;99375.34;;;22.04;49.59
29879;BME280;16752;53.364;-1.488;2024-02-15T10:08:32;99381.00;;;21.87;50.11
29879;BME280;16752;53.364;-1.488;2024-02-15T10:11:16;99382.34;;;22.05;49.75
29879;BME280;16752;53.364;-1.488;2024-02-15T10:14:09;99385.44;;;22.08;49.39
29879;BME280;16752;53.364;-1.488;2024-02-15T10:16:54;99378.94;;;22.31;48.93
29879;BME280;16752;53.364;-1.488;2024-02-15T10:19:38;99385.22;;;22.10;49.71
29879;BME280;16752;53.364;-1.488;2024-02-15T10:22:23;99374.81;;;21.46;51.25
29879;BME280;16752;53.364;-1.488;2024-02-15T10:25:11;99375.53;;;21.05;52.13
29879;BME280;16752;53.364;-1.488;2024-02-15T10:28:02;99367.44;;;21.82;50.98
29879;BME280;16752;53.364;-1.488;2024-02-15T10:30:46;99360.88;;;22.33;49.45
29879;BME280;16752;53.364;-1.488;2024-02-15T10:33:32;99370.06;;;22.10;49.89
29879;BME280;16752;53.364;-1.488;2024-02-15T10:36:18;99364.91;;;22.09;50.27
29879;BME280;16752;53.364;-1.488;2024-02-15T10:39:14;99373.00;;;21.87;50.53
29879;BME280;16752;53.364;-1.488;2024-02-15T10:42:02;99354.19;;;21.95;50.54
29879;BME280;16752;53.364;-1.488;2024-02-15T10:44:46;99357.56;;;21.76;51.10
29879;BME280;16752;53.364;-1.488;2024-02-15T10:47:31;99360.81;;;21.37;51.97
29879;BME280;16752;53.364;-1.488;2024-02-15T10:50:15;99354.03;;;22.10;49.94
29879;BME280;16752;53.364;-1.488;2024-02-15T10:53:00;99353.91;;;21.84;50.58
29879;BME280;16752;53.364;-1.488;2024-02-15T10:55:53;99340.19;;;22.48;49.07
29879;BME280;16752;53.364;-1.488;2024-02-15T10:58:44;99353.03;;;22.85;48.49
29879;BME280;16752;53.364;-1.488;2024-02-15T11:01:30;99346.06;;;21.69;50.83
29879;BME280;16752;53.364;-1.488;2024-02-15T11:04:16;99333.06;;;22.01;50.45
29879;BME280;16752;53.364;-1.488;2024-02-15T11:07:05;99327.28;;;22.45;48.50
29879;BME280;16752;53.364;-1.488;2024-02-15T11:09:50;99328.94;;;21.91;50.20
29879;BME280;16752;53.364;-1.488;2024-02-15T11:12:35;99321.47;;;22.28;49.05
29879;BME280;16752;53.364;-1.488;2024-02-15T11:16:01;99312.13;;;21.98;50.05
29879;BME280;16752;53.364;-1.488;2024-02-15T11:19:02;99309.31;;;21.64;50.81
29879;BME280;16752;53.364;-1.488;2024-02-15T11:21:55;99312.72;;;22.74;48.69
29879;BME280;16752;53.364;-1.488;2024-02-15T11:24:49;99316.00;;;22.63;48.87
29879;BME280;16752;53.364;-1.488;2024-02-15T11:27:36;99315.00;;;23.10;48.15
29879;BME280;16752;53.364;-1.488;2024-02-15T11:30:31;99304.09;;;22.78;47.59
29879;BME280;16752;53.364;-1.488;2024-02-15T11:33:28;99300.69;;;22.10;48.89
29879;BME280;16752;53.364;-1.488;2024-02-15T11:36:12;99321.72;;;23.52;46.39
29879;BME280;16752;53.364;-1.488;2024-02-15T11:38:56;99303.25;;;23.44;47.26
29879;BME280;16752;53.364;-1.488;2024-02-15T11:41:40;99299.72;;;21.70;49.69
29879;BME280;16752;53.364;-1.488;2024-02-15T11:44:24;99302.47;;;23.10;47.33
29879;BME280;16752;53.364;-1.488;2024-02-15T11:47:08;99298.13;;;22.43;48.57
29879;BME280;16752;53.364;-1.488;2024-02-15T11:49:54;99289.75;;;22.86;48.14
29879;BME280;16752;53.364;-1.488;2024-02-15T11:52:39;99290.34;;;23.21;46.88
29879;BME280;16752;53.364;-1.488;2024-02-15T11:55:24;99290.94;;;23.30;45.90
29879;BME280;16752;53.364;-1.488;2024-02-15T11:58:09;99281.75;;;21.92;49.02
29879;BME280;16752;53.364;-1.488;2024-02-15T12:00:57;99287.09;;;22.99;46.22
29879;BME280;16752;53.364;-1.488;2024-02-15T12:04:03;99275.66;;;24.08;45.22
29879;BME280;16752;53.364;-1.488;2024-02-15T12:07:07;99281.69;;;23.26;45.49
29879;BME280;16752;53.364;-1.488;2024-02-15T12:10:19;99272.34;;;23.61;45.79
29879;BME280;16752;53.364;-1.488;2024-02-15T12:13:22;99265.22;;;23.29;46.24
29879;BME280;16752;53.364;-1.488;2024-02-15T12:16:25;99273.47;;;23.27;45.26
29879;BME280;16752;53.364;-1.488;2024-02-15T12:19:28;99268.56;;;22.98;45.84
29879;BME280;16752;53.364;-1.488;2024-02-15T12:22:12;99272.03;;;23.25;46.48
29879;BME280;16752;53.364;-1.488;2024-02-15T12:24:58;99280.56;;;23.53;44.72
29879;BME280;16752;53.364;-1.488;2024-02-15T12:27:42;99268.03;;;23.67;44.40
29879;BME280;16752;53.364;-1.488;2024-02-15T12:30:32;99271.56;;;23.99;43.76
29879;BME280;16752;53.364;-1.488;2024-02-15T12:33:16;99262.75;;;23.92;43.08
29879;BME280;16752;53.364;-1.488;2024-02-15T12:36:06;99265.22;;;24.31;43.59
29879;BME280;16752;53.364;-1.488;2024-02-15T12:38:58;99278.91;;;23.72;44.42
29879;BME280;16752;53.364;-1.488;2024-02-15T12:41:47;99262.50;;;24.38;42.65
29879;BME280;16752;53.364;-1.488;2024-02-15T12:44:31;99256.28;;;24.69;42.02
29879;BME280;16752;53.364;-1.488;2024-02-15T12:47:18;99252.91;;;24.80;42.54
29879;BME280;16752;53.364;-1.488;2024-02-15T12:50:12;99262.56;;;24.81;42.25
29879;BME280;16752;53.364;-1.488;2024-02-15T12:52:56;99245.31;;;24.77;41.59
29879;BME280;16752;53.364;-1.488;2024-02-15T12:55:45;99245.56;;;24.69;42.09
29879;BME280;16752;53.364;-1.488;2024-02-15T12:58:37;99238.88;;;24.28;42.09
29879;BME280;16752;53.364;-1.488;2024-02-15T13:01:22;99228.09;;;25.46;40.89
29879;BME280;16752;53.364;-1.488;2024-02-15T13:04:07;99229.97;;;25.09;40.77
29879;BME280;16752;53.364;-1.488;2024-02-15T13:06:52;99234.00;;;24.93;41.76
29879;BME280;16752;53.364;-1.488;2024-02-15T13:09:36;99234.69;;;24.64;41.29
29879;BME280;16752;53.364;-1.488;2024-02-15T13:12:20;99229.09;;;23.13;44.56
29879;BME280;16752;53.364;-1.488;2024-02-15T13:15:04;99230.66;;;24.55;41.21
29879;BME280;16752;53.364;-1.488;2024-02-15T13:17:49;99227.53;;;25.93;39.41
29879;BME280;16752;53.364;-1.488;2024-02-15T13:20:35;99227.78;;;25.36;40.50
29879;BME280;16752;53.364;-1.488;2024-02-15T13:23:21;99222.44;;;25.73;39.24
29879;BME280;16752;53.364;-1.488;2024-02-15T13:26:08;99218.25;;;25.77;39.28
29879;BME280;16752;53.364;-1.488;2024-02-15T13:28:55;99215.50;;;25.47;38.24
29879;BME280;16752;53.364;-1.488;2024-02-15T13:31:38;99204.41;;;24.63;39.98
29879;BME280;16752;53.364;-1.488;2024-02-15T13:34:23;99199.81;;;26.10;39.31
29879;BME280;16752;53.364;-1.488;2024-02-15T13:37:08;99194.53;;;25.44;37.82
29879;BME280;16752;53.364;-1.488;2024-02-15T13:39:51;99194.22;;;26.12;36.72
29879;BME280;16752;53.364;-1.488;2024-02-15T13:42:35;99184.69;;;25.86;36.71
29879;BME280;16752;53.364;-1.488;2024-02-15T13:45:22;99181.72;;;24.66;39.25
29879;BME280;16752;53.364;-1.488;2024-02-15T13:48:07;99168.75;;;26.03;38.43
29879;BME280;16752;53.364;-1.488;2024-02-15T13:50:51;99165.53;;;25.34;38.43
29879;BME280;16752;53.364;-1.488;2024-02-15T13:53:38;99166.88;;;25.43;37.75
29879;BME280;16752;53.364;-1.488;2024-02-15T13:56:22;99161.00;;;25.35;37.71
29879;BME280;16752;53.364;-1.488;2024-02-15T13:59:06;99162.41;;;24.82;38.46
29879;BME280;16752;53.364;-1.488;2024-02-15T14:01:50;99147.47;;;25.11;38.99
29879;BME280;16752;53.364;-1.488;2024-02-15T14:04:34;99158.53;;;24.03;39.12
29879;BME280;16752;53.364;-1.488;2024-02-15T14:07:19;99143.53;;;24.34;39.04
29879;BME280;16752;53.364;-1.488;2024-02-15T14:10:04;99142.00;;;24.63;38.55
29879;BME280;16752;53.364;-1.488;2024-02-15T14:12:48;99139.44;;;24.50;40.00
29879;BME280;16752;53.364;-1.488;2024-02-15T14:15:32;99140.19;;;25.00;38.78
29879;BME280;16752;53.364;-1.488;2024-02-15T14:18:21;99132.56;;;24.60;39.39
29879;BME280;16752;53.364;-1.488;2024-02-15T14:21:06;99139.88;;;24.22;40.16
29879;BME280;16752;53.364;-1.488;2024-02-15T14:23:54;99145.94;;;24.11;39.98
29879;BME280;16752;53.364;-1.488;2024-02-15T14:26:38;99136.22;;;24.84;39.42